Time;durP1;ratioP1;P1;durP2;ratioP2;P2;SDS_P1;SDS_P2;PMS_P1;PMS_P2;Temp;Humidity;BMP_temperature;BMP_pressure;BME280_temperature;BME280_humidity;BME280_pressure;Samples;Min_cycle;Max_cycle;Signal;HPM_P1;HPM_P2
2021/09/10 00:00:44;;;;;;;;;;;;;;;24.00;61.64;100792.53;5055286;28;902;-64
2021/09/10 00:03:09;;;;;;;;;;;;;;;24.01;61.42;100796.06;5055199;28;993;-64
2021/09/10 00:05:34;;;;;;;;;;;;;;;24.00;61.50;100788.97;5054694;28;1005;-64
2021/09/10 00:08:00;;;;;;;;;;;;;;;23.99;61.65;100798.16;5054599;28;964;-64
2021/09/10 00:10:25;;;;;;;;;;;;;;;23.98;61.39;100797.31;5053963;28;1895;-64
2021/09/10 00:12:50;;;;;;;;;;;;;;;23.96;61.98;100793.94;5033597;28;1966;-64
2021/09/10 00:15:15;;;;;;;;;;;;;;;23.96;61.78;100803.97;5050265;28;1931;-64
2021/09/10 00:17:40;;;;;;;;;;;;;;;23.96;62.18;100793.09;5054428;28;989;-64
2021/09/10 00:20:05;;;;;;;;;;;;;;;23.97;62.10;100794.78;5036505;28;1721;-64
2021/09/10 00:22:30;;;;;;;;;;;;;;;23.96;61.65;100790.38;5055618;28;803;-64
2021/09/10 00:24:55;;;;;;;;;;;;;;;23.94;62.17;100787.81;5055121;28;795;-64
2021/09/10 00:27:20;;;;;;;;;;;;;;;23.94;62.39;100786.97;5038592;28;1877;-64
2021/09/10 00:29:46;;;;;;;;;;;;;;;23.92;62.25;100783.59;5035144;28;1088;-63
2021/09/10 00:32:11;;;;;;;;;;;;;;;23.92;62.33;100773.56;5035223;28;811;-64
2021/09/10 00:34:36;;;;;;;;;;;;;;;23.92;62.32;100770.00;5017407;28;1977;-62
2021/09/10 00:37:01;;;;;;;;;;;;;;;23.92;62.50;100786.31;5035526;28;858;-63
2021/09/10 00:39:26;;;;;;;;;;;;;;;23.91;62.32;100785.47;5017228;28;1361;-63
2021/09/10 00:41:51;;;;;;;;;;;;;;;23.89;62.42;100776.66;5044618;28;2018;-63
2021/09/10 00:44:16;;;;;;;;;;;;;;;23.89;62.61;100776.66;5055118;28;1317;-62
2021/09/10 00:46:41;;;;;;;;;;;;;;;23.88;62.69;100775.81;5055459;28;1773;-63
2021/09/10 00:49:06;;;;;;;;;;;;;;;23.88;62.82;100777.69;5056239;28;945;-63
2021/09/10 00:51:31;;;;;;;;;;;;;;;23.87;62.44;100778.72;5059326;28;855;-63
2021/09/10 00:53:56;;;;;;;;;;;;;;;23.86;62.45;100772.41;5059159;28;1886;-63
2021/09/10 00:56:21;;;;;;;;;;;;;;;23.87;62.78;100773.25;5058131;28;1880;-63
2021/09/10 00:58:46;;;;;;;;;;;;;;;23.86;62.71;100779.75;5058797;28;1005;-62
2021/09/10 01:01:12;;;;;;;;;;;;;;;23.86;62.63;100772.41;5058775;28;856;-63
2021/09/10 01:03:37;;;;;;;;;;;;;;;23.85;62.55;100768.00;5059318;28;1014;-64
2021/09/10 01:06:02;;;;;;;;;;;;;;;23.85;62.79;100775.31;5058662;28;989;-64
2021/09/10 01:08:27;;;;;;;;;;;;;;;23.84;62.44;100774.47;5058728;28;997;-64
2021/09/10 01:10:52;;;;;;;;;;;;;;;23.83;62.46;100772.78;5040909;28;1819;-64
2021/09/10 01:13:17;;;;;;;;;;;;;;;23.82;62.88;100773.84;5051081;28;1887;-64
2021/09/10 01:15:42;;;;;;;;;;;;;;;23.82;62.99;100773.00;5038389;28;1878;-64
2021/09/10 01:18:07;;;;;;;;;;;;;;;23.81;62.78;100774.88;5038705;28;872;-63
2021/09/10 01:20:32;;;;;;;;;;;;;;;23.81;62.78;100769.44;5038259;28;1630;-63
2021/09/10 01:22:57;;;;;;;;;;;;;;;23.79;62.83;100768.78;5038919;28;1945;-63
2021/09/10 01:25:22;;;;;;;;;;;;;;;23.80;62.66;100775.06;5038573;28;811;-64
2021/09/10 01:27:47;;;;;;;;;;;;;;;23.79;62.83;100766.06;5038583;28;1366;-64
2021/09/10 01:30:12;;;;;;;;;;;;;;;23.79;63.08;100767.94;5046798;28;1892;-64
2021/09/10 01:32:38;;;;;;;;;;;;;;;23.76;62.65;100777.31;5058346;28;1013;-64
2021/09/10 01:35:03;;;;;;;;;;;;;;;23.76;62.55;100773.75;5058567;28;1914;-64
2021/09/10 01:37:28;;;;;;;;;;;;;;;23.76;62.89;100771.88;5058373;28;887;-64
2021/09/10 01:39:53;;;;;;;;;;;;;;;23.75;62.52;100774.78;5058487;28;816;-64
2021/09/10 01:42:18;;;;;;;;;;;;;;;23.74;62.88;100773.94;5058158;28;1010;-64
2021/09/10 01:44:43;;;;;;;;;;;;;;;23.74;63.01;100776.66;5040375;28;1518;-64
2021/09/10 01:47:08;;;;;;;;;;;;;;;23.73;62.73;100772.25;5047298;28;1845;-64
2021/09/10 01:49:33;;;;;;;;;;;;;;;23.73;63.02;100772.25;5038305;28;895;-64
2021/09/10 01:51:58;;;;;;;;;;;;;;;23.72;63.17;100776.00;5037790;28;1068;-64
2021/09/10 01:54:23;;;;;;;;;;;;;;;23.71;62.97;100768.84;5038572;28;1902;-63
2021/09/10 01:56:48;;;;;;;;;;;;;;;23.70;62.67;100767.16;5037842;28;985;-63
2021/09/10 01:59:13;;;;;;;;;;;;;;;23.69;62.81;100773.63;5038140;28;811;-63
2021/09/10 02:01:39;;;;;;;;;;;;;;;23.69;62.74;100773.63;5036983;28;969;-64
2021/09/10 02:04:04;;;;;;;;;;;;;;;23.69;63.18;100781.78;5045783;28;1966;-64
2021/09/10 02:06:29;;;;;;;;;;;;;;;23.68;63.07;100774.66;5058425;28;993;-64
2021/09/10 02:08:54;;;;;;;;;;;;;;;23.68;63.15;100774.66;5057704;28;1038;-64
2021/09/10 02:11:19;;;;;;;;;;;;;;;23.67;62.86;100778.41;5057295;28;811;-64
2021/09/10 02:13:44;;;;;;;;;;;;;;;23.65;62.95;100769.59;5057445;28;1894;-64
2021/09/10 02:16:11;;;;;;;;;;;;;;;23.64;63.16;100770.66;5057757;28;835;-64
2021/09/10 02:18:36;;;;;;;;;;;;;;;23.63;63.02;100771.69;5057333;28;807;-64
2021/09/10 02:21:01;;;;;;;;;;;;;;;23.65;63.10;100768.75;5047659;28;1846;-65
2021/09/10 02:23:26;;;;;;;;;;;;;;;23.63;63.16;100768.13;5046114;28;1932;-65
2021/09/10 02:25:51;;;;;;;;;;;;;;;23.62;62.70;100780.88;5037384;28;1005;-64
2021/09/10 02:28:16;;;;;;;;;;;;;;;23.61;63.13;100771.03;5037633;28;1585;-64
2021/09/10 02:30:41;;;;;;;;;;;;;;;23.58;63.08;100768.66;5019886;28;1805;-64
2021/09/10 02:33:06;;;;;;;;;;;;;;;23.58;63.15;100779.53;5037047;28;863;-66
2021/09/10 02:35:31;;;;;;;;;;;;;;;23.59;63.67;100774.94;5037308;28;1910;-66
2021/09/10 02:37:57;;;;;;;;;;;;;;;23.57;63.69;100780.56;5019616;28;2016;-65
2021/09/10 02:40:22;;;;;;;;;;;;;;;23.55;63.79;100782.63;5037372;28;887;-65
2021/09/10 02:42:47;;;;;;;;;;;;;;;23.57;63.44;100779.72;5037252;28;939;-61
2021/09/10 02:45:12;;;;;;;;;;;;;;;23.54;63.73;100773.63;5019253;28;1463;-62
2021/09/10 02:47:37;;;;;;;;;;;;;;;23.56;63.23;100775.31;5037128;28;985;-61
2021/09/10 02:50:02;;;;;;;;;;;;;;;23.54;63.34;100768.19;5036834;28;838;-61
2021/09/10 02:52:27;;;;;;;;;;;;;;;23.54;63.67;100767.34;5036597;28;898;-61
2021/09/10 02:54:52;;;;;;;;;;;;;;;23.52;63.36;100769.41;5044976;28;2044;-61
2021/09/10 02:57:17;;;;;;;;;;;;;;;23.51;63.35;100767.66;5056919;28;1005;-61
2021/09/10 02:59:42;;;;;;;;;;;;;;;23.50;63.81;100755.09;5056657;28;918;-61
2021/09/10 03:02:07;;;;;;;;;;;;;;;23.52;63.27;100753.06;5056665;28;838;-61
2021/09/10 03:04:32;;;;;;;;;;;;;;;23.49;63.35;100754.25;5057122;28;1739;-61
2021/09/10 03:06:58;;;;;;;;;;;;;;;23.51;63.54;100767.66;5056319;28;1057;-64
2021/09/10 03:09:23;;;;;;;;;;;;;;;23.50;63.58;100761.38;5056760;28;1119;-64
2021/09/10 03:11:48;;;;;;;;;;;;;;;23.48;63.50;100760.72;5048262;28;2013;-64
2021/09/10 03:14:13;;;;;;;;;;;;;;;23.49;63.90;100769.72;5019301;28;1942;-64
2021/09/10 03:16:38;;;;;;;;;;;;;;;23.45;64.14;100766.56;5036895;28;890;-64
2021/09/10 03:19:03;;;;;;;;;;;;;;;23.45;64.10;100769.28;5036168;28;925;-64
2021/09/10 03:21:28;;;;;;;;;;;;;;;23.45;63.70;100763.84;5036415;28;1061;-64
2021/09/10 03:23:53;;;;;;;;;;;;;;;23.46;63.58;100765.53;5036375;28;1014;-65
2021/09/10 03:26:18;;;;;;;;;;;;;;;23.45;63.55;100768.44;5036437;28;953;-65
2021/09/10 03:28:43;;;;;;;;;;;;;;;23.44;63.81;100762.16;5037157;28;1827;-65
2021/09/10 03:31:08;;;;;;;;;;;;;;;23.44;63.93;100764.88;5047036;28;1882;-65
2021/09/10 03:33:34;;;;;;;;;;;;;;;23.43;63.69;100763.19;5055914;28;1906;-65
2021/09/10 03:35:59;;;;;;;;;;;;;;;23.42;63.71;100764.22;5056043;28;1033;-65
2021/09/10 03:38:24;;;;;;;;;;;;;;;23.43;64.02;100765.06;5055861;28;994;-64
2021/09/10 03:40:49;;;;;;;;;;;;;;;23.41;64.07;100765.22;5055937;28;918;-65
2021/09/10 03:43:14;;;;;;;;;;;;;;;23.37;64.16;100765.78;5055675;28;1954;-65
2021/09/10 03:45:39;;;;;;;;;;;;;;;23.41;63.78;100754.34;5055820;28;858;-65
2021/09/10 03:48:04;;;;;;;;;;;;;;;23.41;63.97;100761.66;5038061;28;910;-62
2021/09/10 03:50:30;;;;;;;;;;;;;;;23.40;64.38;100762.69;5055735;28;933;-62
2021/09/10 03:52:55;;;;;;;;;;;;;;;23.37;64.11;100757.63;5056114;28;1520;-62
2021/09/10 03:55:20;;;;;;;;;;;;;;;23.36;64.63;100759.50;5056265;28;1890;-63
2021/09/10 03:57:45;;;;;;;;;;;;;;;23.36;64.43;100764.09;5055739;28;1058;-64
2021/09/10 04:00:10;;;;;;;;;;;;;;;23.36;64.49;100756.78;5053147;28;1924;-64
2021/09/10 04:02:35;;;;;;;;;;;;;;;23.33;64.21;100759.00;5035382;28;862;-64
2021/09/10 04:05:01;;;;;;;;;;;;;;;23.33;64.49;100765.28;5035360;28;1074;-64
2021/09/10 04:07:26;;;;;;;;;;;;;;;23.32;64.38;100763.59;5034391;28;1002;-64
2021/09/10 04:09:51;;;;;;;;;;;;;;;23.32;64.33;100760.88;5034519;28;1060;-64
2021/09/10 04:12:16;;;;;;;;;;;;;;;23.34;64.68;100771.56;5034598;28;1884;-64
2021/09/10 04:14:41;;;;;;;;;;;;;;;23.32;64.46;100768.19;5034430;28;1906;-64
2021/09/10 04:17:06;;;;;;;;;;;;;;;23.34;64.36;100771.56;5034556;28;1648;-64
2021/09/10 04:19:32;;;;;;;;;;;;;;;23.30;64.72;100770.25;5034478;28;819;-64
2021/09/10 04:21:57;;;;;;;;;;;;;;;23.29;64.52;100769.41;5016703;28;906;-64
2021/09/10 04:24:24;;;;;;;;;;;;;;;23.31;64.95;100770.06;5034110;28;934;-63
2021/09/10 04:26:49;;;;;;;;;;;;;;;23.29;64.64;100763.97;5034781;28;1770;-63
2021/09/10 04:29:14;;;;;;;;;;;;;;;23.30;64.65;100770.25;5052381;28;1631;-62
2021/09/10 04:31:39;;;;;;;;;;;;;;;23.29;64.78;100769.41;5055395;28;929;-62
2021/09/10 04:34:04;;;;;;;;;;;;;;;23.31;64.51;100769.22;5054915;28;1918;-62
2021/09/10 04:36:29;;;;;;;;;;;;;;;23.29;64.85;100768.59;5053946;28;1671;-66
2021/09/10 04:38:54;;;;;;;;;;;;;;;23.30;64.96;100770.25;5044707;28;1567;-67
2021/09/10 04:41:20;;;;;;;;;;;;;;;23.27;64.96;100771.50;5043879;28;1932;-65
2021/09/10 04:43:45;;;;;;;;;;;;;;;23.28;64.94;100765.03;5040800;28;1819;-63
2021/09/10 04:46:10;;;;;;;;;;;;;;;23.29;65.01;100768.59;5050067;28;1915;-63
2021/09/10 04:48:35;;;;;;;;;;;;;;;23.27;64.64;100767.94;5046343;28;1871;-62
2021/09/10 04:51:00;;;;;;;;;;;;;;;23.27;64.78;100770.66;5055191;28;1001;-62
2021/09/10 04:53:25;;;;;;;;;;;;;;;23.26;64.78;100774.41;5054879;28;903;-62
2021/09/10 04:55:50;;;;;;;;;;;;;;;23.24;65.26;100771.00;5050118;28;1953;-63
2021/09/10 04:58:15;;;;;;;;;;;;;;;23.22;65.21;100768.47;5044741;28;1836;-64
2021/09/10 05:00:40;;;;;;;;;;;;;;;23.21;65.42;100772.22;5043742;28;1724;-63
2021/09/10 05:03:05;;;;;;;;;;;;;;;23.20;65.89;100771.38;5042319;28;2375;-62
2021/09/10 05:05:30;;;;;;;;;;;;;;;23.20;65.91;100767.81;5035269;28;934;-64
2021/09/10 05:07:55;;;;;;;;;;;;;;;23.19;66.01;100772.41;5045579;28;1819;-62
2021/09/10 05:10:21;;;;;;;;;;;;;;;23.21;65.60;100777.66;5049097;28;1618;-65
2021/09/10 05:12:46;;;;;;;;;;;;;;;23.24;65.77;100776.44;5054815;28;843;-63
2021/09/10 05:15:11;;;;;;;;;;;;;;;23.25;65.36;100776.25;5053865;28;1983;-64
2021/09/10 05:17:36;;;;;;;;;;;;;;;23.23;65.68;100772.88;5054442;28;1550;-65
2021/09/10 05:20:03;;;;;;;;;;;;;;;23.24;65.65;100763.69;5048407;28;1179;-64
2021/09/10 05:22:28;;;;;;;;;;;;;;;23.34;65.52;100780.59;5043567;28;1388;-65
2021/09/10 05:24:53;;;;;;;;;;;;;;;23.36;67.45;100780.41;5044215;28;1331;-65
2021/09/10 05:27:18;;;;;;;;;;;;;;;23.34;67.83;100777.03;5046381;28;1428;-64
2021/09/10 05:29:43;;;;;;;;;;;;;;;23.28;67.72;100781.34;5044033;28;1402;-65
2021/09/10 05:32:08;;;;;;;;;;;;;;;23.25;68.09;100778.13;5041429;28;1491;-65
2021/09/10 05:34:33;;;;;;;;;;;;;;;23.28;67.35;100777.78;5040383;28;1977;-67
2021/09/10 05:36:58;;;;;;;;;;;;;;;23.26;66.90;100774.41;5037393;28;918;-67
2021/09/10 05:39:23;;;;;;;;;;;;;;;23.27;66.70;100770.66;5038029;28;796;-67
2021/09/10 05:41:49;;;;;;;;;;;;;;;23.27;66.84;100773.38;5020735;28;805;-67
2021/09/10 05:44:14;;;;;;;;;;;;;;;23.27;66.67;100784.25;5040829;28;1758;-67
2021/09/10 05:46:39;;;;;;;;;;;;;;;23.26;66.83;100779.84;5043301;28;1806;-67
2021/09/10 05:49:04;;;;;;;;;;;;;;;23.26;66.80;100788.84;5038654;28;1929;-67
2021/09/10 05:51:29;;;;;;;;;;;;;;;23.26;66.25;100786.13;5020233;28;1961;-67
2021/09/10 05:53:54;;;;;;;;;;;;;;;23.25;66.23;100789.88;5038265;28;1969;-67
2021/09/10 05:56:19;;;;;;;;;;;;;;;23.26;66.50;100793.44;5043004;28;1449;-67
2021/09/10 05:58:45;;;;;;;;;;;;;;;23.26;66.23;100794.28;5038429;28;1561;-66
2021/09/10 06:01:10;;;;;;;;;;;;;;;23.27;66.63;100808.72;5038020;28;1733;-67
2021/09/10 06:03:35;;;;;;;;;;;;;;;23.26;66.34;100797.00;5040359;28;1670;-66
2021/09/10 06:06:00;;;;;;;;;;;;;;;23.26;66.31;100802.44;5045290;28;1641;-67
2021/09/10 06:08:25;;;;;;;;;;;;;;;23.27;66.49;100809.56;5042444;28;1736;-67
2021/09/10 06:10:50;;;;;;;;;;;;;;;23.31;66.44;100813.59;5040295;28;1535;-67
2021/09/10 06:13:15;;;;;;;;;;;;;;;23.29;66.36;100822.97;5048467;28;1736;-67
2021/09/10 06:15:40;;;;;;;;;;;;;;;23.27;66.41;100827.75;5040718;28;1953;-66
2021/09/10 06:18:05;;;;;;;;;;;;;;;23.29;66.02;100823.78;5037636;28;1669;-66
2021/09/10 06:20:30;;;;;;;;;;;;;;;23.29;65.74;100822.97;5037910;28;966;-66
2021/09/10 06:22:55;;;;;;;;;;;;;;;23.30;65.88;100832.78;5040106;28;1879;-66
2021/09/10 06:25:20;;;;;;;;;;;;;;;23.29;65.81;100826.50;5037534;28;2004;-66
2021/09/10 06:27:45;;;;;;;;;;;;;;;23.31;65.75;100831.78;5036857;28;1246;-66
2021/09/10 06:30:11;;;;;;;;;;;;;;;23.32;66.03;100820.72;5036882;28;791;-66
2021/09/10 06:32:36;;;;;;;;;;;;;;;23.35;65.87;100824.94;5036860;28;1056;-66
2021/09/10 06:35:01;;;;;;;;;;;;;;;23.37;65.50;100833.78;5036833;28;1910;-66
2021/09/10 06:37:27;;;;;;;;;;;;;;;23.36;65.82;100834.78;5036772;28;859;-66
2021/09/10 06:39:52;;;;;;;;;;;;;;;23.38;65.87;100832.75;5036706;28;1996;-67
2021/09/10 06:42:17;;;;;;;;;;;;;;;23.37;65.93;100842.78;5050838;28;1312;-66
2021/09/10 06:44:42;;;;;;;;;;;;;;;23.35;65.94;100843.97;5050701;28;1224;-66
2021/09/10 06:47:07;;;;;;;;;;;;;;;23.34;65.80;100850.44;5047062;28;1310;-66
2021/09/10 06:49:32;;;;;;;;;;;;;;;23.34;65.43;100842.28;5039658;28;1429;-66
2021/09/10 06:51:57;;;;;;;;;;;;;;;23.37;65.22;100841.94;5021074;28;1189;-64
2021/09/10 06:54:22;;;;;;;;;;;;;;;23.43;65.27;100841.22;5036422;28;1961;-67
2021/09/10 06:56:47;;;;;;;;;;;;;;;23.45;65.31;100850.03;5038856;28;1985;-65
2021/09/10 06:59:16;;;;;;;;;;;;;;;23.45;65.50;100850.03;5051284;28;1876;-63
2021/09/10 07:01:41;;;;;;;;;;;;;;;23.45;65.05;100847.31;5037502;28;2049;-64
2021/09/10 07:04:06;;;;;;;;;;;;;;;23.46;64.89;100851.72;5036939;28;986;-65
2021/09/10 07:06:31;;;;;;;;;;;;;;;23.46;65.09;100857.16;5036746;28;1559;-65
2021/09/10 07:08:56;;;;;;;;;;;;;;;23.48;65.32;100865.97;5036885;28;858;-63
2021/09/10 07:11:22;;;;;;;;;;;;;;;23.48;64.80;100855.94;5036790;28;986;-63
2021/09/10 07:13:47;;;;;;;;;;;;;;;23.51;65.00;100866.47;5039538;28;1936;-67
2021/09/10 07:16:12;;;;;;;;;;;;;;;23.53;65.02;100863.59;5056521;28;843;-65
2021/09/10 07:18:37;;;;;;;;;;;;;;;23.54;64.72;100868.00;5056500;28;1065;-64
2021/09/10 07:21:03;;;;;;;;;;;;;;;23.56;64.83;100873.25;5056090;28;907;-67
2021/09/10 07:23:30;;;;;;;;;;;;;;;23.57;64.85;100862.19;5056411;28;888;-67
2021/09/10 07:25:56;;;;;;;;;;;;;;;23.62;64.53;100873.38;5056065;28;930;-67
2021/09/10 07:28:21;;;;;;;;;;;;;;;23.56;64.64;100868.66;5056454;28;1212;-64
2021/09/10 07:30:46;;;;;;;;;;;;;;;23.58;64.48;100874.75;5053786;28;2033;-63
2021/09/10 07:33:11;;;;;;;;;;;;;;;23.60;64.24;100878.16;5036268;28;875;-70
2021/09/10 07:35:38;;;;;;;;;;;;;;;23.65;64.73;100872.97;5036048;28;1973;-66
2021/09/10 07:38:04;;;;;;;;;;;;;;;23.66;64.23;100868.38;5036435;28;840;-69
2021/09/10 07:40:29;;;;;;;;;;;;;;;23.67;64.68;100873.66;5036195;28;1883;-65
2021/09/10 07:42:54;;;;;;;;;;;;;;;23.65;64.59;100881.16;5036327;28;2022;-71
2021/09/10 07:45:19;;;;;;;;;;;;;;;23.61;64.96;100882.56;5036011;28;886;-64
2021/09/10 07:47:44;;;;;;;;;;;;;;;23.62;64.65;100883.41;5035976;28;818;-68
2021/09/10 07:50:10;;;;;;;;;;;;;;;23.64;64.82;100884.94;5054436;28;2108;-67
2021/09/10 07:52:35;;;;;;;;;;;;;;;23.64;64.50;100871.31;5056091;28;843;-68
2021/09/10 07:55:00;;;;;;;;;;;;;;;23.63;64.59;100874.22;5054163;28;1902;-65
2021/09/10 07:57:25;;;;;;;;;;;;;;;23.59;65.10;100879.19;5054844;28;840;-64
2021/09/10 07:59:55;;;;;;;;;;;;;;;23.61;64.52;100882.56;5054854;28;852;-62
2021/09/10 08:02:20;;;;;;;;;;;;;;;23.63;64.81;100882.38;5055424;28;799;-67
2021/09/10 08:04:45;;;;;;;;;;;;;;;23.59;64.63;100898.22;5054126;28;1966;-66
2021/09/10 08:07:10;;;;;;;;;;;;;;;23.52;64.60;100905.41;5041345;28;1480;-64
2021/09/10 08:09:35;;;;;;;;;;;;;;;23.48;64.67;100904.91;5055828;28;1666;-63
2021/09/10 08:12:00;;;;;;;;;;;;;;;23.42;64.81;100902.06;5055273;28;846;-64
2021/09/10 08:14:25;;;;;;;;;;;;;;;23.52;64.57;100910.84;5055361;28;1902;-64
2021/09/10 08:16:51;;;;;;;;;;;;;;;23.46;64.77;100915.13;5055710;28;818;-67
2021/09/10 08:19:16;;;;;;;;;;;;;;;23.48;64.69;100915.78;5055326;28;860;-63
2021/09/10 08:21:41;;;;;;;;;;;;;;;23.50;64.80;100915.59;5055621;28;862;-68
2021/09/10 08:24:09;;;;;;;;;;;;;;;23.48;64.82;100913.06;5053333;28;1990;-63
2021/09/10 08:26:34;;;;;;;;;;;;;;;23.52;64.74;100921.75;5054801;28;1286;-65
2021/09/10 08:28:59;;;;;;;;;;;;;;;23.49;64.78;100924.78;5054431;28;2088;-63
2021/09/10 08:31:24;;;;;;;;;;;;;;;23.51;64.74;100928.16;5054581;28;1870;-65
2021/09/10 08:33:49;;;;;;;;;;;;;;;23.53;64.77;100927.00;5054851;28;1914;-64
2021/09/10 08:36:14;;;;;;;;;;;;;;;23.49;64.95;100928.34;5054550;28;930;-66
2021/09/10 08:38:39;;;;;;;;;;;;;;;23.50;64.93;100930.03;5053142;28;848;-64
2021/09/10 08:41:05;;;;;;;;;;;;;;;23.54;64.33;100933.28;5038728;28;1995;-67
2021/09/10 08:43:30;;;;;;;;;;;;;;;23.48;64.79;100932.09;5034922;28;776;-66
2021/09/10 08:45:55;;;;;;;;;;;;;;;23.47;64.73;100933.13;5034908;28;1056;-65
2021/09/10 08:48:20;;;;;;;;;;;;;;;23.49;64.39;100941.09;5034697;28;1046;-65
2021/09/10 08:50:45;;;;;;;;;;;;;;;23.44;64.83;100930.78;5016886;28;1002;-69
2021/09/10 08:53:10;;;;;;;;;;;;;;;23.38;65.04;100930.66;5034373;28;990;-64
2021/09/10 08:55:35;;;;;;;;;;;;;;;23.33;65.80;100930.34;5034406;28;1955;-64
2021/09/10 08:58:00;;;;;;;;;;;;;;;23.31;65.38;100929.66;5047000;28;1969;-66
2021/09/10 09:00:25;;;;;;;;;;;;;;;23.34;65.17;100930.16;5054010;28;835;-63
2021/09/10 09:02:50;;;;;;;;;;;;;;;23.34;65.24;100932.03;5054619;28;1111;-67
2021/09/10 09:05:15;;;;;;;;;;;;;;;23.32;65.58;100936.81;5052967;28;1444;-66
2021/09/10 09:07:40;;;;;;;;;;;;;;;23.32;65.35;100936.81;5054519;28;981;-64
2021/09/10 09:10:05;;;;;;;;;;;;;;;23.34;65.12;100935.59;5055318;28;1178;-65
2021/09/10 09:12:31;;;;;;;;;;;;;;;23.42;64.87;100937.44;5058548;28;997;-65
2021/09/10 09:14:56;;;;;;;;;;;;;;;23.47;64.82;100940.44;5043973;28;1901;-65
2021/09/10 09:17:21;;;;;;;;;;;;;;;23.42;65.21;100932.00;5054945;28;1939;-65
2021/09/10 09:19:46;;;;;;;;;;;;;;;23.40;65.51;100925.88;5048896;28;1846;-68
2021/09/10 09:22:11;;;;;;;;;;;;;;;23.46;64.85;100928.75;5038203;28;800;-61
2021/09/10 09:24:36;;;;;;;;;;;;;;;23.43;65.39;100929.09;5038161;28;1041;-64
2021/09/10 09:27:01;;;;;;;;;;;;;;;23.42;65.13;100932.00;5037851;28;1286;-66
2021/09/10 09:29:26;;;;;;;;;;;;;;;23.52;64.68;100929.91;5037969;28;843;-64
2021/09/10 09:31:51;;;;;;;;;;;;;;;23.53;64.51;100924.28;5052383;28;1571;-63
2021/09/10 09:34:16;;;;;;;;;;;;;;;23.47;65.12;100944.00;5057936;28;1906;-62
2021/09/10 09:36:41;;;;;;;;;;;;;;;23.40;65.27;100942.22;5058636;28;886;-62
2021/09/10 09:39:07;;;;;;;;;;;;;;;23.51;64.72;100930.88;5050774;28;1263;-64
2021/09/10 09:41:32;;;;;;;;;;;;;;;23.48;65.34;100937.53;5043197;28;1299;-64
2021/09/10 09:43:57;;;;;;;;;;;;;;;23.47;65.07;100951.31;5037822;28;878;-66
2021/09/10 09:46:22;;;;;;;;;;;;;;;23.53;64.86;100934.31;5037827;28;990;-65
2021/09/10 09:48:47;;;;;;;;;;;;;;;23.62;64.53;100943.28;5037970;28;1775;-63
2021/09/10 09:51:15;;;;;;;;;;;;;;;23.63;64.52;100940.38;5037582;28;1002;-62
2021/09/10 09:53:40;;;;;;;;;;;;;;;23.52;64.87;100948.94;5037874;28;849;-62
2021/09/10 09:56:07;;;;;;;;;;;;;;;23.55;65.07;100937.69;5037556;28;1902;-65
2021/09/10 09:58:33;;;;;;;;;;;;;;;23.52;65.25;100954.38;5037777;28;780;-67
2021/09/10 10:00:59;;;;;;;;;;;;;;;23.58;65.03;100948.22;5037556;28;1056;-63
2021/09/10 10:03:24;;;;;;;;;;;;;;;23.57;64.82;100951.13;5037751;28;811;-64
2021/09/10 10:05:49;;;;;;;;;;;;;;;23.56;64.96;100952.16;5050847;28;1889;-65
2021/09/10 10:08:14;;;;;;;;;;;;;;;23.63;64.72;100948.53;5057277;28;863;-66
2021/09/10 10:10:39;;;;;;;;;;;;;;;23.59;64.67;100954.50;5057612;28;807;-66
2021/09/10 10:13:05;;;;;;;;;;;;;;;23.58;64.99;100960.97;5056538;28;1289;-66
2021/09/10 10:15:30;;;;;;;;;;;;;;;23.65;64.96;100956.50;5057537;28;1965;-65
2021/09/10 10:17:55;;;;;;;;;;;;;;;23.69;64.62;100949.66;5047849;28;1451;-63
2021/09/10 10:20:20;;;;;;;;;;;;;;;23.73;64.64;100949.13;5037644;28;874;-63
2021/09/10 10:22:47;;;;;;;;;;;;;;;23.78;64.85;100945.84;5052544;28;1871;-65
2021/09/10 10:25:12;;;;;;;;;;;;;;;23.81;64.47;100953.66;5037603;28;1796;-69
2021/09/10 10:27:38;;;;;;;;;;;;;;;23.75;64.17;100949.78;5037158;28;1699;-66
2021/09/10 10:30:03;;;;;;;;;;;;;;;23.64;64.95;100950.22;5037345;28;877;-68
2021/09/10 10:32:29;;;;;;;;;;;;;;;23.69;64.90;100945.06;5037283;28;833;-63
2021/09/10 10:34:54;;;;;;;;;;;;;;;23.70;64.87;100952.19;5037325;28;1890;-60
2021/09/10 10:37:19;;;;;;;;;;;;;;;23.75;64.49;100955.22;5037480;28;796;-64
2021/09/10 10:39:44;;;;;;;;;;;;;;;23.79;64.43;100945.69;5051807;28;1821;-62
2021/09/10 10:42:09;;;;;;;;;;;;;;;23.79;64.85;100950.28;5057161;28;994;-63
2021/09/10 10:44:37;;;;;;;;;;;;;;;23.81;64.50;100942.78;5057160;28;938;-62
2021/09/10 10:47:02;;;;;;;;;;;;;;;23.79;64.84;100944.84;5056778;28;867;-62
2021/09/10 10:49:27;;;;;;;;;;;;;;;23.82;64.47;100960.81;5056884;28;908;-67
2021/09/10 10:51:52;;;;;;;;;;;;;;;23.82;64.63;100944.47;5056565;28;867;-67
2021/09/10 10:54:18;;;;;;;;;;;;;;;23.85;64.32;100944.94;5038565;28;1943;-66
2021/09/10 10:56:43;;;;;;;;;;;;;;;23.74;64.39;100953.53;5025004;28;1927;-63
2021/09/10 10:59:08;;;;;;;;;;;;;;;23.80;64.57;100952.81;5036694;28;919;-62
2021/09/10 11:01:33;;;;;;;;;;;;;;;23.86;64.57;100954.78;5036874;28;910;-64
2021/09/10 11:03:58;;;;;;;;;;;;;;;23.88;64.47;100955.44;5045769;28;1418;-66
2021/09/10 11:06:23;;;;;;;;;;;;;;;23.80;64.30;100955.53;5045158;28;1362;-66
2021/09/10 11:08:48;;;;;;;;;;;;;;;23.74;63.95;100939.94;5054499;28;1511;-65
2021/09/10 11:11:13;;;;;;;;;;;;;;;23.67;63.71;100935.38;5044139;28;1305;-65
2021/09/10 11:13:38;;;;;;;;;;;;;;;23.68;63.86;100937.09;5046004;28;1577;-65
2021/09/10 11:16:08;;;;;;;;;;;;;;;23.73;63.97;100930.06;5043830;28;1956;-65
2021/09/10 11:18:33;;;;;;;;;;;;;;;23.75;64.07;100930.75;5045605;28;1290;-65
2021/09/10 11:20:58;;;;;;;;;;;;;;;23.74;63.67;100931.75;5027279;28;1597;-65
2021/09/10 11:23:23;;;;;;;;;;;;;;;23.66;63.45;100934.53;5043827;28;1367;-65
2021/09/10 11:25:49;;;;;;;;;;;;;;;23.66;63.54;100934.53;5045588;28;1364;-65
2021/09/10 11:28:14;;;;;;;;;;;;;;;23.72;63.47;100922.09;5044007;28;1507;-65
2021/09/10 11:30:39;;;;;;;;;;;;;;;23.76;63.18;100935.16;5047045;28;1425;-66
2021/09/10 11:33:04;;;;;;;;;;;;;;;23.72;63.40;100931.09;5020345;28;1884;-65
2021/09/10 11:35:29;;;;;;;;;;;;;;;23.58;63.71;100925.63;5042380;28;1910;-64
2021/09/10 11:37:54;;;;;;;;;;;;;;;23.64;63.60;100925.75;5042903;28;1513;-65
2021/09/10 11:40:19;;;;;;;;;;;;;;;23.67;63.47;100925.34;5044378;28;1360;-65
2021/09/10 11:42:44;;;;;;;;;;;;;;;23.66;63.94;100923.66;5047613;28;1290;-66
2021/09/10 11:45:09;;;;;;;;;;;;;;;23.71;63.68;100915.81;5047747;28;1449;-63
2021/09/10 11:47:35;;;;;;;;;;;;;;;23.83;63.79;100917.03;5044016;28;1494;-63
2021/09/10 11:50:00;;;;;;;;;;;;;;;23.84;63.21;100915.16;5046155;28;1328;-70
2021/09/10 11:52:25;;;;;;;;;;;;;;;23.74;63.94;100920.88;5045194;28;1420;-65
2021/09/10 11:54:50;;;;;;;;;;;;;;;23.91;63.37;100915.28;5052182;28;1889;-64
2021/09/10 11:57:15;;;;;;;;;;;;;;;23.87;64.25;100915.66;5026869;28;1349;-65
2021/09/10 11:59:40;;;;;;;;;;;;;;;23.82;64.31;100917.25;5043817;28;1427;-65
2021/09/10 12:02:05;;;;;;;;;;;;;;;23.64;65.27;100923.03;5042891;28;1511;-67
2021/09/10 12:04:30;;;;;;;;;;;;;;;23.63;65.56;100924.03;5042210;28;1780;-63
2021/09/10 12:06:58;;;;;;;;;;;;;;;23.67;65.67;100919.91;5035254;28;1062;-68
2021/09/10 12:09:23;;;;;;;;;;;;;;;23.66;65.29;100923.66;5035356;28;890;-66
2021/09/10 12:11:48;;;;;;;;;;;;;;;23.55;66.71;100913.22;5034920;28;856;-66
2021/09/10 12:14:14;;;;;;;;;;;;;;;23.61;66.21;100923.38;5035107;28;1901;-64
2021/09/10 12:16:39;;;;;;;;;;;;;;;23.57;66.49;100921.19;5035143;28;800;-64
2021/09/10 12:19:04;;;;;;;;;;;;;;;23.65;65.89;100919.25;5034781;28;1162;-67
2021/09/10 12:21:29;;;;;;;;;;;;;;;23.65;66.26;100913.81;5046279;28;1752;-63
2021/09/10 12:23:54;;;;;;;;;;;;;;;23.66;66.57;100923.66;5054693;28;891;-63
2021/09/10 12:26:19;;;;;;;;;;;;;;;23.72;66.11;100930.25;5036782;28;1021;-62
2021/09/10 12:28:44;;;;;;;;;;;;;;;23.74;65.89;100931.75;5054792;28;1291;-62
2021/09/10 12:31:09;;;;;;;;;;;;;;;23.72;67.18;100924.81;5055101;28;799;-62
2021/09/10 12:33:35;;;;;;;;;;;;;;;23.70;67.07;100919.56;5054694;28;842;-68
2021/09/10 12:36:00;;;;;;;;;;;;;;;23.73;67.40;100923.78;5054661;28;1961;-61
2021/09/10 12:38:25;;;;;;;;;;;;;;;23.68;66.81;100931.63;5041102;28;1877;-66